Terminal Aerodrome Forecast
Issued by NWS North Platte, NE

Home | Current Version | Previous Version | Text Only | Print | Product List | Glossary Off
Versions: 1 2 3 4 5 6 7 8 9 10 11 12 13 14 15 16

000
FTUS43 KLBF 231120
TAFVTN
TAF
KVTN 231120Z 2312/2412 18006KT P6SM SKC
     FM231700 17012G18KT P6SM SCT060
     FM240100 15007KT P6SM BKN200
     FM240500 20008KT P6SM OVC100
     FM240800 33010KT P6SM -RA OVC040=

USA.gov is the U.S. government's official web portal to all federal, state and local government web resources and services.